createdAt,value
2023-05-08T00:01:46.841Z,7.90
2023-05-08T00:04:14.906Z,7.90
2023-05-08T00:06:43.600Z,7.90
2023-05-08T00:09:11.883Z,7.90
2023-05-08T00:11:41.109Z,7.90
2023-05-08T00:14:09.224Z,7.80
2023-05-08T00:16:37.350Z,7.80
2023-05-08T00:19:06.628Z,7.90
2023-05-08T00:21:34.717Z,7.80
2023-05-08T00:24:02.601Z,7.80
2023-05-08T00:26:30.703Z,7.70
2023-05-08T00:28:59.875Z,7.70
2023-05-08T00:31:27.756Z,7.60
2023-05-08T00:33:55.830Z,7.60
2023-05-08T00:36:23.641Z,7.60
2023-05-08T00:38:51.480Z,7.60
2023-05-08T00:41:19.320Z,7.60
2023-05-08T00:43:47.191Z,7.60
2023-05-08T00:46:16.693Z,7.60
2023-05-08T00:48:45.067Z,7.60
2023-05-08T00:51:13.022Z,7.60
2023-05-08T00:53:42.890Z,7.60
2023-05-08T00:56:11.962Z,7.60
2023-05-08T00:58:40.671Z,7.60
2023-05-08T01:01:08.621Z,7.50
2023-05-08T01:03:39.091Z,7.50
2023-05-08T01:06:08.004Z,7.50
2023-05-08T01:08:36.117Z,7.50
2023-05-08T01:11:09.218Z,7.50
2023-05-08T01:13:43.497Z,7.50
2023-05-08T01:16:15.979Z,7.50
2023-05-08T01:18:48.847Z,7.40
2023-05-08T01:21:20.177Z,7.50
2023-05-08T01:24:03.360Z,7.50
2023-05-08T01:26:46.029Z,7.50
2023-05-08T01:29:30.714Z,7.40
2023-05-08T01:32:10.239Z,7.40
2023-05-08T01:34:42.028Z,7.40
2023-05-08T01:37:12.552Z,7.40
2023-05-08T01:39:44.510Z,7.40
2023-05-08T01:42:15.093Z,7.40
2023-05-08T01:44:46.301Z,7.30
2023-05-08T01:47:16.775Z,7.30
2023-05-08T01:49:45.974Z,7.30
2023-05-08T01:52:18.613Z,7.30
2023-05-08T01:54:58.641Z,7.30
2023-05-08T01:57:28.308Z,7.30
2023-05-08T01:59:57.218Z,7.20
2023-05-08T02:02:27.287Z,7.30
2023-05-08T02:04:55.804Z,7.30
2023-05-08T02:07:24.108Z,7.30
2023-05-08T02:09:52.454Z,7.30
2023-05-08T02:12:22.122Z,7.30
2023-05-08T02:14:50.602Z,7.30
2023-05-08T02:17:18.770Z,7.20
2023-05-08T02:19:48.115Z,7.20
2023-05-08T02:22:17.422Z,7.20
2023-05-08T02:24:45.944Z,7.20
2023-05-08T02:27:14.507Z,7.10
2023-05-08T02:29:43.522Z,7.10
2023-05-08T02:32:12.173Z,7.10
2023-05-08T02:34:45.284Z,7.10
2023-05-08T02:37:22.475Z,7.10
2023-05-08T02:39:52.520Z,7.10
2023-05-08T02:42:20.436Z,7.10
2023-05-08T02:44:48.288Z,7.10
2023-05-08T02:47:17.994Z,7.10
2023-05-08T02:49:49.694Z,7.00
2023-05-08T02:52:19.729Z,7.00
2023-05-08T02:54:53.277Z,6.90
2023-05-08T02:57:24.127Z,7.00
2023-05-08T02:59:55.691Z,6.90
2023-05-08T03:02:26.601Z,6.90
2023-05-08T03:04:57.206Z,6.90
2023-05-08T03:07:26.701Z,6.90
2023-05-08T03:09:59.954Z,6.90
2023-05-08T03:12:28.962Z,6.90
2023-05-08T03:15:00.343Z,6.90
2023-05-08T03:17:29.819Z,6.90
2023-05-08T03:20:00.625Z,6.90
2023-05-08T03:22:29.921Z,6.90
2023-05-08T03:25:01.021Z,6.80
2023-05-08T03:27:29.888Z,6.90
2023-05-08T03:29:58.252Z,6.90
2023-05-08T03:32:27.317Z,6.90
2023-05-08T03:34:56.444Z,6.90
2023-05-08T03:37:24.317Z,6.80
2023-05-08T03:39:52.261Z,6.80
2023-05-08T03:42:22.219Z,6.70
2023-05-08T03:44:51.236Z,6.70
2023-05-08T03:47:19.579Z,6.70
2023-05-08T03:49:48.293Z,6.70
2023-05-08T03:52:17.080Z,6.70
2023-05-08T03:54:44.954Z,6.70
2023-05-08T03:57:12.840Z,6.60
2023-05-08T03:59:48.106Z,6.60
2023-05-08T04:02:20.946Z,6.60
2023-05-08T04:04:51.525Z,6.60
2023-05-08T04:07:25.827Z,6.60
2023-05-08T04:09:59.056Z,6.70
2023-05-08T04:12:30.532Z,6.70
2023-05-08T04:15:04.665Z,6.70
2023-05-08T04:17:36.010Z,6.70
2023-05-08T04:20:05.608Z,6.70
2023-05-08T04:22:34.190Z,6.70
2023-05-08T04:25:03.896Z,6.70
2023-05-08T04:27:32.513Z,6.70
2023-05-08T04:30:02.546Z,6.70
2023-05-08T04:32:31.184Z,6.70
2023-05-08T04:35:00.041Z,6.70
2023-05-08T04:37:28.310Z,6.80
2023-05-08T04:39:56.200Z,6.70
2023-05-08T04:42:24.274Z,6.80
2023-05-08T04:44:52.121Z,6.80
2023-05-08T04:47:21.764Z,6.80
2023-05-08T04:49:49.631Z,6.70
2023-05-08T04:52:17.484Z,6.70
2023-05-08T04:54:45.357Z,6.70
2023-05-08T04:57:13.272Z,6.80
2023-05-08T04:59:41.226Z,6.80
2023-05-08T05:02:09.224Z,6.80
2023-05-08T05:04:38.520Z,6.90
2023-05-08T05:07:06.393Z,6.90
2023-05-08T05:09:36.878Z,6.90
2023-05-08T05:12:04.856Z,6.90
2023-05-08T05:14:32.984Z,6.90
2023-05-08T05:17:00.904Z,6.90
2023-05-08T05:19:28.790Z,6.90
2023-05-08T05:21:57.989Z,7.00
2023-05-08T05:24:25.876Z,7.00
2023-05-08T05:26:53.820Z,7.10
2023-05-08T05:29:21.676Z,7.10
2023-05-08T05:31:49.667Z,7.10
2023-05-08T05:34:17.652Z,7.20
2023-05-08T05:36:45.546Z,7.20
2023-05-08T05:39:14.751Z,7.30
2023-05-08T05:41:44.196Z,7.40
2023-05-08T05:44:12.247Z,7.50
2023-05-08T05:46:42.117Z,7.50
2023-05-08T05:49:11.830Z,7.50
2023-05-08T05:51:39.671Z,7.50
2023-05-08T05:54:07.596Z,7.50
2023-05-08T05:56:37.382Z,7.50
2023-05-08T05:59:05.459Z,7.40
2023-05-08T06:01:33.331Z,7.40
2023-05-08T06:04:01.355Z,7.40
2023-05-08T06:06:30.023Z,7.30
2023-05-08T06:08:57.855Z,7.30
2023-05-08T06:11:25.739Z,7.30
2023-05-08T06:13:55.000Z,7.40
2023-05-08T06:16:23.208Z,7.40
2023-05-08T06:18:51.254Z,7.50
2023-05-08T06:21:19.120Z,7.70
2023-05-08T06:23:47.034Z,7.70
2023-05-08T06:26:14.910Z,7.70
2023-05-08T06:28:42.748Z,7.70
2023-05-08T06:31:12.081Z,7.70
2023-05-08T06:33:39.984Z,7.80
2023-05-08T06:36:07.945Z,7.70
2023-05-08T06:38:35.836Z,7.60
2023-05-08T06:41:03.705Z,7.60
2023-05-08T06:43:31.748Z,7.70
2023-05-08T06:45:59.678Z,7.80
2023-05-08T06:48:29.293Z,7.90
2023-05-08T06:50:57.441Z,8.00
2023-05-08T06:53:25.410Z,8.00
2023-05-08T06:55:53.318Z,8.00
2023-05-08T06:58:21.162Z,8.20
2023-05-08T07:00:49.041Z,8.20
2023-05-08T07:03:16.902Z,8.30
2023-05-08T07:05:46.063Z,8.30
2023-05-08T07:08:13.918Z,8.30
2023-05-08T07:10:41.760Z,8.40
2023-05-08T07:13:09.690Z,8.40
2023-05-08T07:15:38.875Z,8.50
2023-05-08T07:18:06.824Z,8.50
2023-05-08T07:20:35.481Z,8.50
2023-05-08T07:23:04.800Z,8.60
2023-05-08T07:25:32.635Z,8.60
2023-05-08T07:28:01.461Z,8.70
2023-05-08T07:30:29.495Z,8.70
2023-05-08T07:32:57.403Z,8.70
2023-05-08T07:35:25.393Z,8.70
2023-05-08T07:37:53.223Z,8.80
2023-05-08T07:40:22.489Z,8.90
2023-05-08T07:42:50.381Z,8.90
2023-05-08T07:45:18.195Z,8.90
2023-05-08T07:47:52.724Z,9.00
2023-05-08T07:50:21.200Z,9.10
2023-05-08T07:52:50.346Z,9.10
2023-05-08T07:55:18.644Z,9.10
2023-05-08T07:57:47.935Z,9.20
2023-05-08T08:00:16.704Z,9.40
2023-05-08T08:02:44.786Z,9.60
2023-05-08T08:05:13.212Z,9.90
2023-05-08T08:07:41.367Z,10.20
2023-05-08T08:10:09.622Z,10.30
2023-05-08T08:12:37.492Z,10.50
2023-05-08T08:15:07.437Z,10.60
2023-05-08T08:17:35.450Z,10.70
2023-05-08T08:20:03.443Z,11.00
2023-05-08T08:22:31.338Z,11.10
2023-05-08T08:24:59.189Z,11.30
2023-05-08T08:27:27.115Z,11.80
2023-05-08T08:30:08.226Z,11.80
2023-05-08T08:32:44.218Z,11.80
2023-05-08T08:35:12.481Z,11.60
2023-05-08T08:37:40.744Z,11.70
2023-05-08T08:40:09.131Z,11.80
2023-05-08T08:42:37.067Z,12.30
2023-05-08T08:45:05.290Z,13.00
2023-05-08T08:47:37.017Z,13.40
2023-05-08T08:50:07.734Z,13.80
2023-05-08T08:52:40.226Z,14.20
2023-05-08T08:55:09.108Z,14.40
2023-05-08T08:57:38.180Z,14.40
2023-05-08T09:00:08.505Z,14.10
2023-05-08T09:02:36.529Z,13.90
2023-05-08T09:05:06.470Z,14.00
2023-05-08T09:07:34.462Z,14.10
2023-05-08T09:10:02.997Z,14.00
2023-05-08T09:12:30.884Z,14.40
2023-05-08T09:14:58.782Z,14.90
2023-05-08T09:17:26.680Z,15.00
2023-05-08T09:19:54.588Z,15.40
2023-05-08T09:22:24.412Z,15.60
2023-05-08T09:24:55.889Z,15.80
2023-05-08T09:27:24.698Z,16.00
2023-05-08T09:30:02.980Z,16.00
2023-05-08T09:32:31.316Z,16.30
2023-05-08T09:34:59.380Z,16.10
2023-05-08T09:37:29.139Z,16.50
2023-05-08T09:40:13.483Z,16.30
2023-05-08T09:42:41.366Z,16.80
2023-05-08T09:45:09.793Z,17.10
2023-05-08T09:47:39.597Z,17.00
2023-05-08T09:50:08.514Z,17.10
2023-05-08T09:52:38.529Z,17.40
2023-05-08T09:55:07.660Z,17.90
2023-05-08T09:57:38.265Z,18.20
2023-05-08T10:00:07.813Z,18.20
2023-05-08T10:02:35.848Z,18.50
2023-05-08T10:05:04.343Z,18.60
2023-05-08T10:07:33.007Z,18.90
2023-05-08T10:10:03.720Z,19.10
2023-05-08T10:12:31.853Z,19.20
2023-05-08T10:14:59.892Z,19.50
2023-05-08T10:17:32.245Z,19.30
2023-05-08T10:20:02.032Z,19.60
2023-05-08T10:22:30.947Z,19.80
2023-05-08T10:25:00.825Z,19.90
2023-05-08T10:27:36.064Z,20.10
2023-05-08T10:30:05.136Z,20.40
2023-05-08T10:32:36.843Z,20.50
2023-05-08T10:35:05.080Z,20.70
2023-05-08T10:37:35.876Z,20.80
2023-05-08T10:40:03.915Z,20.90
2023-05-08T10:42:34.384Z,21.10
2023-05-08T10:45:02.730Z,21.40
2023-05-08T10:47:34.471Z,21.50
2023-05-08T10:50:05.462Z,21.60
2023-05-08T10:52:35.322Z,21.40
2023-05-08T10:55:21.229Z,21.30
2023-05-08T10:58:06.997Z,20.90
2023-05-08T11:00:55.250Z,21.20
2023-05-08T11:03:32.290Z,21.20
2023-05-08T11:06:02.162Z,21.50
2023-05-08T11:08:31.183Z,22.00
2023-05-08T11:11:04.946Z,22.40
2023-05-08T11:13:35.923Z,22.70
2023-05-08T11:16:04.261Z,22.70
2023-05-08T11:18:45.653Z,22.70
2023-05-08T11:21:21.584Z,22.70
2023-05-08T11:23:57.048Z,23.00
2023-05-08T11:26:38.996Z,23.20
2023-05-08T11:29:17.284Z,23.30
2023-05-08T11:31:52.239Z,23.30
2023-05-08T11:34:39.005Z,23.40
2023-05-08T11:37:09.987Z,23.40
2023-05-08T11:39:37.870Z,23.30
2023-05-08T11:42:20.672Z,23.30
2023-05-08T11:44:49.892Z,23.00
2023-05-08T11:47:19.763Z,23.20
2023-05-08T11:49:47.711Z,23.60
2023-05-08T11:52:19.586Z,23.80
2023-05-08T11:54:47.560Z,24.00
2023-05-08T11:57:18.128Z,24.00
2023-05-08T11:59:50.862Z,24.20
2023-05-08T12:02:20.090Z,24.60
2023-05-08T12:04:48.331Z,24.90
2023-05-08T12:07:17.093Z,24.80
2023-05-08T12:09:46.978Z,25.00
2023-05-08T12:12:14.844Z,24.90
2023-05-08T12:14:42.694Z,24.80
2023-05-08T12:17:11.018Z,24.80
2023-05-08T12:19:40.620Z,24.90
2023-05-08T12:22:09.660Z,24.90
2023-05-08T12:24:37.631Z,24.80
2023-05-08T12:27:05.603Z,25.10
2023-05-08T12:29:36.468Z,25.30
2023-05-08T12:32:04.377Z,25.10
2023-05-08T12:34:32.435Z,25.30
2023-05-08T12:37:05.469Z,25.50
2023-05-08T12:39:36.389Z,25.60
2023-05-08T12:42:04.286Z,25.60
2023-05-08T12:44:32.293Z,25.30
2023-05-08T12:47:00.271Z,25.30
2023-05-08T12:49:28.963Z,25.20
2023-05-08T12:52:05.505Z,25.10
2023-05-08T12:54:34.388Z,25.20
2023-05-08T12:57:02.337Z,25.50
2023-05-08T12:59:30.567Z,25.50
2023-05-08T13:01:58.496Z,25.40
2023-05-08T13:04:26.450Z,25.10
2023-05-08T13:06:55.169Z,24.90
2023-05-08T13:09:24.473Z,25.00
2023-05-08T13:11:52.387Z,25.00
2023-05-08T13:14:20.299Z,24.70
2023-05-08T13:16:48.770Z,24.80
2023-05-08T13:19:16.747Z,24.70
2023-05-08T13:21:47.268Z,24.60
2023-05-08T13:24:15.352Z,24.40
2023-05-08T13:26:46.012Z,24.20
2023-05-08T13:29:13.855Z,24.00
2023-05-08T13:31:41.795Z,23.80
2023-05-08T13:34:09.949Z,23.70
2023-05-08T13:36:37.883Z,23.70
2023-05-08T13:39:06.380Z,23.60
2023-05-08T13:41:34.289Z,23.40
2023-05-08T13:44:03.520Z,23.40
2023-05-08T13:46:31.468Z,23.30
2023-05-08T13:48:59.331Z,23.20
2023-05-08T13:51:27.201Z,23.20
2023-05-08T13:53:55.170Z,23.10
2023-05-08T13:56:23.392Z,23.20
2023-05-08T13:58:51.237Z,23.20
2023-05-08T14:01:26.364Z,22.90
2023-05-08T14:03:55.220Z,22.80
2023-05-08T14:06:23.397Z,22.80
2023-05-08T14:08:54.239Z,22.70
2023-05-08T14:11:23.697Z,22.70
2023-05-08T14:13:51.573Z,22.70
2023-05-08T14:16:20.836Z,22.80
2023-05-08T14:18:48.764Z,22.80
2023-05-08T14:21:16.602Z,22.70
2023-05-08T14:23:45.076Z,22.60
2023-05-08T14:26:13.010Z,22.60
2023-05-08T14:28:40.903Z,22.40
2023-05-08T14:31:09.039Z,22.30
2023-05-08T14:33:38.344Z,22.20
2023-05-08T14:36:06.495Z,22.00
2023-05-08T14:38:34.393Z,21.80
2023-05-08T14:41:04.653Z,21.70
2023-05-08T14:43:32.864Z,21.60
2023-05-08T14:46:00.742Z,21.60
2023-05-08T14:48:28.693Z,21.60
2023-05-08T14:50:58.574Z,21.60
2023-05-08T14:53:26.584Z,21.60
2023-05-08T14:55:54.933Z,21.60
2023-05-08T14:58:23.118Z,21.60
2023-05-08T15:00:51.024Z,21.40
2023-05-08T15:03:19.073Z,21.30
2023-05-08T15:05:47.706Z,21.00
2023-05-08T15:08:16.930Z,20.70
2023-05-08T15:10:45.538Z,20.50
2023-05-08T15:13:13.405Z,20.40
2023-05-08T15:15:41.440Z,20.50
2023-05-08T15:18:09.389Z,20.50
2023-05-08T15:20:37.225Z,20.50
2023-05-08T15:23:05.140Z,20.50
2023-05-08T15:25:34.321Z,20.40
2023-05-08T15:28:02.191Z,20.40
2023-05-08T15:30:30.122Z,20.50
2023-05-08T15:32:58.024Z,20.40
2023-05-08T15:35:25.918Z,20.20
2023-05-08T15:37:53.916Z,20.10
2023-05-08T15:40:21.985Z,20.10
2023-05-08T15:42:51.263Z,20.10
2023-05-08T15:45:19.252Z,20.20
2023-05-08T15:47:47.170Z,20.30
2023-05-08T15:50:15.638Z,20.20
2023-05-08T15:52:43.823Z,19.90
2023-05-08T15:55:12.121Z,19.70
2023-05-08T15:57:40.259Z,19.50
2023-05-08T16:00:10.466Z,19.40
2023-05-08T16:02:38.458Z,19.40
2023-05-08T16:05:06.715Z,19.40
2023-05-08T16:07:34.578Z,19.30
2023-05-08T16:10:03.420Z,19.20
2023-05-08T16:12:32.075Z,19.20
2023-05-08T16:14:59.975Z,19.10
2023-05-08T16:17:29.314Z,19.10
2023-05-08T16:19:57.208Z,18.90
2023-05-08T16:22:25.077Z,18.80
2023-05-08T16:24:53.923Z,18.70
2023-05-08T16:27:21.781Z,18.60
2023-05-08T16:29:49.619Z,18.40
2023-05-08T16:32:17.542Z,18.20
2023-05-08T16:34:46.786Z,18.10
2023-05-08T16:37:14.636Z,17.90
2023-05-08T16:39:42.501Z,17.80
2023-05-08T16:42:10.489Z,17.70
2023-05-08T16:44:38.402Z,17.60
2023-05-08T16:47:06.467Z,17.40
2023-05-08T16:49:34.420Z,17.40
2023-05-08T16:52:03.699Z,17.20
2023-05-08T16:54:33.792Z,17.20
2023-05-08T16:57:01.674Z,17.00
2023-05-08T16:59:29.609Z,16.90
2023-05-08T17:01:57.481Z,16.80
2023-05-08T17:04:25.968Z,16.70
2023-05-08T17:06:53.879Z,16.60
2023-05-08T17:09:25.269Z,16.60
2023-05-08T17:11:53.163Z,16.50
2023-05-08T17:14:21.068Z,16.40
2023-05-08T17:16:49.252Z,16.30
2023-05-08T17:19:17.099Z,16.10
2023-05-08T17:21:44.932Z,16.00
2023-05-08T17:24:12.815Z,15.80
2023-05-08T17:26:42.022Z,15.80
2023-05-08T17:29:09.874Z,15.60
2023-05-08T17:31:39.919Z,15.50
2023-05-08T17:34:07.827Z,15.40
2023-05-08T17:36:35.795Z,15.30
2023-05-08T17:39:03.709Z,15.20
2023-05-08T17:41:31.576Z,15.20
2023-05-08T17:44:00.821Z,15.10
2023-05-08T17:46:28.665Z,15.00
2023-05-08T17:48:56.536Z,14.90
2023-05-08T17:51:24.380Z,14.80
2023-05-08T17:53:53.052Z,14.60
2023-05-08T17:56:23.254Z,14.50
2023-05-08T17:58:52.253Z,14.50
2023-05-08T18:01:21.631Z,14.30
2023-05-08T18:03:49.637Z,14.30
2023-05-08T18:06:17.543Z,14.20
2023-05-08T18:08:45.724Z,14.00
2023-05-08T18:11:17.657Z,13.90
2023-05-08T18:13:45.530Z,13.80
2023-05-08T18:16:14.984Z,13.70
2023-05-08T18:18:44.298Z,13.60
2023-05-08T18:21:12.370Z,13.50
2023-05-08T18:23:40.330Z,13.40
2023-05-08T18:26:08.449Z,13.30
2023-05-08T18:28:39.740Z,13.30
2023-05-08T18:31:07.755Z,13.20
2023-05-08T18:33:36.953Z,13.10
2023-05-08T18:36:06.962Z,13.00
2023-05-08T18:38:35.530Z,12.80
2023-05-08T18:41:03.733Z,12.70
2023-05-08T18:43:31.659Z,12.60
2023-05-08T18:46:00.581Z,12.60
2023-05-08T18:48:29.410Z,12.50
2023-05-08T18:50:58.670Z,12.40
2023-05-08T18:53:28.003Z,12.30
2023-05-08T18:55:55.863Z,12.30
2023-05-08T18:58:23.724Z,12.20
2023-05-08T19:00:51.571Z,12.20
2023-05-08T19:03:19.571Z,12.10
2023-05-08T19:05:47.471Z,12.00
2023-05-08T19:08:15.893Z,12.00
2023-05-08T19:10:45.148Z,12.00
2023-05-08T19:13:13.064Z,11.90
2023-05-08T19:15:40.947Z,11.80
2023-05-08T19:18:09.180Z,11.70
2023-05-08T19:20:37.113Z,11.50
2023-05-08T19:23:05.148Z,11.40
2023-05-08T19:25:33.074Z,11.30
2023-05-08T19:28:04.060Z,11.30
2023-05-08T19:30:34.257Z,11.20
2023-05-08T19:33:02.069Z,11.10
2023-05-08T19:35:30.014Z,11.00
2023-05-08T19:37:57.910Z,10.90
2023-05-08T19:40:25.735Z,10.80
2023-05-08T19:42:53.609Z,10.70
2023-05-08T19:45:22.990Z,10.70
2023-05-08T19:47:51.009Z,10.60
2023-05-08T19:50:19.034Z,10.50
2023-05-08T19:52:48.829Z,10.40
2023-05-08T19:55:17.110Z,10.30
2023-05-08T19:57:45.076Z,10.30
2023-05-08T20:00:13.706Z,10.20
2023-05-08T20:02:43.199Z,10.10
2023-05-08T20:05:21.674Z,10.00
2023-05-08T20:07:50.712Z,9.90
2023-05-08T20:10:18.520Z,9.90
2023-05-08T20:12:46.438Z,9.80
2023-05-08T20:15:14.565Z,9.70
2023-05-08T20:17:43.970Z,9.60
2023-05-08T20:20:12.673Z,9.60
2023-05-08T20:22:40.764Z,9.50
2023-05-08T20:25:09.644Z,9.50
2023-05-08T20:27:37.462Z,9.40
2023-05-08T20:30:05.762Z,9.30
2023-05-08T20:32:33.714Z,9.20
2023-05-08T20:35:03.212Z,9.10
2023-05-08T20:37:31.093Z,9.00
2023-05-08T20:39:59.642Z,9.00
2023-05-08T20:42:27.488Z,8.90
2023-05-08T20:44:55.393Z,8.80
2023-05-08T20:47:23.300Z,8.80
2023-05-08T20:49:51.165Z,8.70
2023-05-08T20:52:20.487Z,8.60
2023-05-08T20:54:48.516Z,8.60
2023-05-08T20:57:18.258Z,8.50
2023-05-08T20:59:47.249Z,8.40
2023-05-08T21:02:15.205Z,8.40
2023-05-08T21:04:43.016Z,8.30
2023-05-08T21:07:10.897Z,8.20
2023-05-08T21:09:40.141Z,8.20
2023-05-08T21:12:08.218Z,8.10
2023-05-08T21:14:36.166Z,8.10
2023-05-08T21:17:04.096Z,8.00
2023-05-08T21:19:31.952Z,7.90
2023-05-08T21:21:59.894Z,7.90
2023-05-08T21:24:27.752Z,7.80
2023-05-08T21:26:59.475Z,7.80
2023-05-08T21:29:27.376Z,7.80
2023-05-08T21:31:55.340Z,7.70
2023-05-08T21:34:23.283Z,7.70
2023-05-08T21:36:51.195Z,7.70
2023-05-08T21:39:19.051Z,7.60
2023-05-08T21:41:47.002Z,7.50
2023-05-08T21:44:16.248Z,7.40
2023-05-08T21:46:44.138Z,7.40
2023-05-08T21:49:12.122Z,7.40
2023-05-08T21:51:39.979Z,7.30
2023-05-08T21:54:07.822Z,7.30
2023-05-08T21:56:35.671Z,7.30
2023-05-08T21:59:03.522Z,7.20
2023-05-08T22:01:33.513Z,7.20
2023-05-08T22:04:01.555Z,7.20
2023-05-08T22:06:29.461Z,7.10
2023-05-08T22:08:58.905Z,7.10
2023-05-08T22:11:26.949Z,7.00
2023-05-08T22:13:54.785Z,6.90
2023-05-08T22:16:22.676Z,6.80
2023-05-08T22:18:51.977Z,6.80
2023-05-08T22:21:19.841Z,6.80
2023-05-08T22:23:47.703Z,6.80
2023-05-08T22:26:15.542Z,6.70
2023-05-08T22:28:43.411Z,6.70
2023-05-08T22:31:12.438Z,6.60
2023-05-08T22:33:40.280Z,6.60
2023-05-08T22:36:10.358Z,6.50
2023-05-08T22:38:38.173Z,6.50
2023-05-08T22:41:06.142Z,6.50
2023-05-08T22:43:34.338Z,6.40
2023-05-08T22:46:02.514Z,6.40
2023-05-08T22:48:30.700Z,6.40
2023-05-08T22:50:58.575Z,6.40
2023-05-08T22:53:27.754Z,6.40
2023-05-08T22:55:55.853Z,6.30
2023-05-08T22:58:25.130Z,6.30
2023-05-08T23:00:53.076Z,6.20
2023-05-08T23:03:20.941Z,6.20
2023-05-08T23:05:49.464Z,6.20
2023-05-08T23:08:17.300Z,6.10
2023-05-08T23:10:46.567Z,6.10
2023-05-08T23:13:14.570Z,6.10
2023-05-08T23:15:43.041Z,6.00
2023-05-08T23:18:11.040Z,5.90
2023-05-08T23:20:38.964Z,6.00
2023-05-08T23:23:07.727Z,5.90
2023-05-08T23:25:35.614Z,5.90
2023-05-08T23:28:04.871Z,5.80
2023-05-08T23:30:32.709Z,5.80
2023-05-08T23:33:00.626Z,5.70
2023-05-08T23:35:28.776Z,5.70
2023-05-08T23:37:56.834Z,5.70
2023-05-08T23:40:25.103Z,5.70
2023-05-08T23:42:53.099Z,5.60
2023-05-08T23:45:22.303Z,5.60
2023-05-08T23:47:50.294Z,5.60
2023-05-08T23:50:18.208Z,5.50
2023-05-08T23:52:46.183Z,5.50
2023-05-08T23:55:14.509Z,5.40
2023-05-08T23:57:42.505Z,5.40
